createdAt,value
2022-10-03T00:01:20.748Z,76.51
2022-10-03T00:05:02.479Z,77.05
2022-10-03T00:08:26.734Z,76.92
2022-10-03T00:11:37.972Z,76.78
2022-10-03T00:15:01.988Z,76.82
2022-10-03T00:18:34.635Z,75.64
2022-10-03T00:22:01.070Z,76.13
2022-10-03T00:25:44.709Z,75.79
2022-10-03T00:28:55.905Z,75.69
2022-10-03T00:32:00.956Z,75.28
2022-10-03T00:35:27.715Z,76.30
2022-10-03T00:39:03.851Z,76.16
2022-10-03T00:42:43.387Z,76.34
2022-10-03T00:45:58.280Z,75.20
2022-10-03T00:49:24.867Z,75.51
2022-10-03T00:52:41.599Z,74.94
2022-10-03T00:56:15.714Z,75.05
2022-10-03T00:59:26.727Z,75.38
2022-10-03T01:02:46.889Z,74.83
2022-10-03T01:06:21.401Z,74.53
2022-10-03T01:09:37.188Z,75.59
2022-10-03T01:12:49.090Z,75.52
2022-10-03T01:15:54.357Z,75.44
2022-10-03T01:19:14.827Z,76.13
2022-10-03T01:22:31.626Z,76.23
2022-10-03T01:26:01.446Z,76.34
2022-10-03T01:30:11.434Z,75.88
2022-10-03T01:33:24.195Z,75.88
2022-10-03T01:36:40.423Z,76.26
2022-10-03T01:39:48.992Z,75.80
2022-10-03T01:42:50.826Z,75.59
2022-10-03T01:46:28.253Z,75.31
2022-10-03T01:50:00.302Z,75.73
2022-10-03T01:53:13.615Z,74.88
2022-10-03T01:56:27.255Z,74.82
2022-10-03T01:59:29.296Z,75.74
2022-10-03T02:02:50.188Z,75.74
2022-10-03T02:06:06.936Z,75.54
2022-10-03T02:09:41.053Z,74.58
2022-10-03T02:13:05.991Z,74.95
2022-10-03T02:16:23.415Z,75.72
2022-10-03T02:19:37.016Z,75.05
2022-10-03T02:22:44.859Z,75.05
2022-10-03T02:26:09.626Z,75.01
2022-10-03T02:29:23.446Z,75.87
2022-10-03T02:32:56.050Z,75.37
2022-10-03T02:36:20.084Z,74.94
2022-10-03T02:39:23.175Z,74.91
2022-10-03T02:42:43.843Z,74.38
2022-10-03T02:46:13.540Z,74.56
2022-10-03T02:49:36.769Z,74.69
2022-10-03T02:53:15.699Z,74.49
2022-10-03T02:56:50.069Z,74.84
2022-10-03T03:00:04.675Z,75.22
2022-10-03T03:03:19.259Z,76.62
2022-10-03T03:06:41.923Z,76.29
2022-10-03T03:10:02.493Z,75.56
2022-10-03T03:13:39.495Z,76.71
2022-10-03T03:17:03.143Z,77.33
2022-10-03T03:20:08.401Z,77.46
2022-10-03T03:23:35.445Z,77.92
2022-10-03T03:26:51.947Z,77.34
2022-10-03T03:30:02.971Z,77.67
2022-10-03T03:33:34.390Z,77.57
2022-10-03T03:37:08.536Z,77.50
2022-10-03T03:40:51.398Z,77.32
2022-10-03T03:44:20.740Z,77.63
2022-10-03T03:47:31.729Z,76.98
2022-10-03T03:50:36.686Z,76.31
2022-10-03T03:53:49.027Z,77.64
2022-10-03T03:57:09.567Z,75.67
2022-10-03T04:00:16.166Z,74.91
2022-10-03T04:03:46.181Z,74.32
2022-10-03T04:06:50.987Z,73.61
2022-10-03T04:10:11.935Z,73.10
2022-10-03T04:13:26.691Z,72.38
2022-10-03T04:17:16.612Z,72.02
2022-10-03T04:20:40.270Z,71.78
2022-10-03T04:24:19.896Z,71.80
2022-10-03T04:27:33.174Z,70.80
2022-10-03T04:31:01.450Z,71.10
2022-10-03T04:34:12.694Z,72.07
2022-10-03T04:37:42.636Z,72.95
2022-10-03T04:40:58.600Z,73.30
2022-10-03T04:44:15.777Z,73.28
2022-10-03T04:47:28.252Z,74.00
2022-10-03T04:50:51.928Z,74.90
2022-10-03T04:54:04.321Z,75.46
2022-10-03T04:57:54.416Z,74.50
2022-10-03T05:01:16.281Z,74.00
2022-10-03T05:04:24.298Z,73.44
2022-10-03T05:07:43.109Z,71.87
2022-10-03T05:11:06.060Z,73.46
2022-10-03T05:14:13.127Z,71.87
2022-10-03T05:17:23.671Z,71.71
2022-10-03T05:20:37.873Z,72.13
2022-10-03T05:23:53.002Z,71.16
2022-10-03T05:27:11.317Z,71.50
2022-10-03T05:30:25.686Z,72.53
2022-10-03T05:33:53.009Z,71.79
2022-10-03T05:37:07.684Z,72.27
2022-10-03T05:40:17.387Z,71.16
2022-10-03T05:43:28.439Z,71.58
2022-10-03T05:46:42.671Z,71.55
2022-10-03T05:50:10.974Z,69.24
2022-10-03T05:53:22.394Z,70.77
2022-10-03T05:56:49.061Z,69.79
2022-10-03T06:00:18.742Z,70.60
2022-10-03T06:03:23.552Z,70.47
2022-10-03T06:07:22.174Z,70.52
2022-10-03T06:10:45.587Z,70.80
2022-10-03T06:14:17.162Z,71.46
2022-10-03T06:17:43.983Z,71.47
2022-10-03T06:21:05.109Z,70.52
2022-10-03T06:24:16.299Z,70.49
2022-10-03T06:27:42.441Z,70.37
2022-10-03T06:30:56.902Z,71.15
2022-10-03T06:34:41.965Z,70.86
2022-10-03T06:37:50.184Z,69.61
2022-10-03T06:41:07.245Z,69.53
2022-10-03T06:44:41.213Z,69.76
2022-10-03T06:48:21.997Z,68.58
2022-10-03T06:51:39.428Z,67.24
2022-10-03T06:55:04.530Z,66.08
2022-10-03T06:58:37.442Z,66.87
2022-10-03T07:02:19.902Z,64.17
2022-10-03T07:05:43.191Z,62.86
2022-10-03T07:09:21.922Z,61.37
2022-10-03T07:12:38.836Z,58.66
2022-10-03T07:16:05.012Z,55.85
2022-10-03T07:19:27.965Z,54.33
2022-10-03T07:22:41.879Z,54.30
2022-10-03T07:26:08.698Z,52.44
2022-10-03T07:29:31.860Z,52.90
2022-10-03T07:36:30.333Z,54.56
2022-10-03T07:39:52.447Z,56.82
2022-10-03T07:43:12.615Z,63.11
2022-10-03T07:46:36.566Z,63.30
2022-10-03T07:50:03.223Z,56.48
2022-10-03T07:53:14.491Z,54.18
2022-10-03T07:56:40.757Z,53.12
2022-10-03T07:59:59.787Z,51.90
2022-10-03T08:03:17.590Z,52.09
2022-10-03T08:06:43.613Z,56.53
2022-10-03T08:10:09.017Z,57.33
2022-10-03T08:13:49.517Z,58.32
2022-10-03T08:17:50.045Z,57.42
2022-10-03T08:21:03.657Z,56.18
2022-10-03T08:24:45.381Z,55.89
2022-10-03T08:28:09.107Z,55.23
2022-10-03T08:31:42.836Z,55.23
2022-10-03T08:34:50.911Z,55.08
2022-10-03T08:38:12.003Z,55.13
2022-10-03T08:41:32.402Z,55.38
2022-10-03T08:44:48.153Z,55.26
2022-10-03T08:48:09.230Z,55.22
2022-10-03T08:51:49.164Z,55.00
2022-10-03T08:55:00.023Z,55.43
2022-10-03T08:58:32.378Z,55.51
2022-10-03T09:01:50.614Z,55.73
2022-10-03T09:05:30.602Z,55.15
2022-10-03T09:08:54.669Z,70.41
2022-10-03T09:12:08.727Z,72.87
2022-10-03T09:15:44.514Z,65.45
2022-10-03T09:18:58.525Z,65.70
2022-10-03T09:22:03.287Z,65.39
2022-10-03T09:25:11.080Z,67.05
2022-10-03T09:28:44.345Z,66.91
2022-10-03T09:32:14.997Z,67.14
2022-10-03T09:35:22.873Z,67.19
2022-10-03T09:38:57.021Z,67.74
2022-10-03T09:42:36.626Z,66.87
2022-10-03T09:46:03.180Z,68.37
2022-10-03T09:49:54.467Z,68.67
2022-10-03T09:53:33.251Z,67.75
2022-10-03T09:56:47.860Z,68.02
2022-10-03T10:00:03.656Z,67.18
2022-10-03T10:03:29.088Z,67.39
2022-10-03T10:06:40.675Z,66.51
2022-10-03T10:10:03.760Z,67.31
2022-10-03T10:13:26.986Z,66.14
2022-10-03T10:16:47.103Z,66.64
2022-10-03T10:19:56.615Z,66.46
2022-10-03T10:23:05.407Z,66.86
2022-10-03T10:26:25.310Z,67.79
2022-10-03T10:29:36.960Z,67.28
2022-10-03T10:32:48.148Z,67.67
2022-10-03T10:36:16.861Z,67.82
2022-10-03T10:39:34.350Z,67.22
2022-10-03T10:43:01.506Z,67.15
2022-10-03T10:46:29.204Z,67.59
2022-10-03T10:49:43.184Z,67.24
2022-10-03T10:53:09.136Z,66.61
2022-10-03T10:56:22.958Z,66.15
2022-10-03T10:59:58.851Z,66.19
2022-10-03T11:03:57.576Z,66.19
2022-10-03T11:07:17.848Z,65.79
2022-10-03T11:10:34.260Z,65.80
2022-10-03T11:13:43.804Z,66.04
2022-10-03T11:17:23.425Z,64.69
2022-10-03T11:20:43.624Z,65.64
2022-10-03T11:24:14.068Z,63.10
2022-10-03T11:27:52.002Z,60.11
2022-10-03T11:31:21.906Z,58.28
2022-10-03T11:34:37.193Z,55.94
2022-10-03T11:37:39.880Z,55.95
2022-10-03T11:40:55.925Z,55.87
2022-10-03T11:44:59.683Z,56.50
2022-10-03T11:48:26.365Z,55.79
2022-10-03T11:51:41.147Z,55.93
2022-10-03T11:54:48.304Z,57.45
2022-10-03T11:58:19.156Z,56.66
2022-10-03T12:01:37.517Z,56.32
2022-10-03T12:05:07.228Z,56.01
2022-10-03T12:08:39.913Z,56.70
2022-10-03T12:12:00.652Z,55.97
2022-10-03T12:15:31.667Z,56.73
2022-10-03T12:18:45.573Z,56.50
2022-10-03T12:22:22.943Z,56.53
2022-10-03T12:25:28.005Z,56.73
2022-10-03T12:28:42.364Z,57.26
2022-10-03T12:32:16.162Z,56.99
2022-10-03T12:36:03.389Z,58.00
2022-10-03T12:39:37.769Z,58.13
2022-10-03T12:43:29.323Z,57.70
2022-10-03T12:46:51.964Z,58.26
2022-10-03T12:50:09.947Z,56.89
2022-10-03T12:53:17.827Z,58.34
2022-10-03T12:57:07.322Z,58.62
2022-10-03T13:00:28.004Z,58.38
2022-10-03T13:04:09.871Z,57.97
2022-10-03T13:07:33.927Z,58.23
2022-10-03T13:10:50.515Z,58.78
2022-10-03T13:14:37.513Z,59.44
2022-10-03T13:17:49.637Z,58.53
2022-10-03T13:21:45.040Z,58.66
2022-10-03T13:25:06.576Z,58.81
2022-10-03T13:28:23.932Z,58.30
2022-10-03T13:31:39.783Z,59.03
2022-10-03T13:35:20.613Z,58.91
2022-10-03T13:38:55.427Z,57.98
2022-10-03T13:42:13.683Z,57.40
2022-10-03T13:45:27.436Z,57.83
2022-10-03T13:48:31.941Z,61.02
2022-10-03T13:51:59.518Z,63.66
2022-10-03T13:55:26.117Z,66.24
2022-10-03T13:58:33.409Z,68.61
2022-10-03T14:01:47.673Z,70.13
2022-10-03T14:05:27.436Z,71.56
2022-10-03T14:09:07.075Z,71.34
2022-10-03T14:12:54.872Z,72.02
2022-10-03T14:16:15.229Z,72.90
2022-10-03T14:19:39.639Z,74.25
2022-10-03T14:23:00.154Z,73.98
2022-10-03T14:27:04.451Z,74.53
2022-10-03T14:30:25.710Z,73.75
2022-10-03T14:34:04.640Z,72.19
2022-10-03T14:37:20.149Z,71.10
2022-10-03T14:40:33.046Z,70.12
2022-10-03T14:44:12.656Z,69.14
2022-10-03T14:47:17.636Z,68.65
2022-10-03T14:50:53.979Z,67.65
2022-10-03T14:54:05.336Z,66.20
2022-10-03T14:57:27.271Z,66.93
2022-10-03T15:01:11.665Z,66.61
2022-10-03T15:04:37.509Z,65.97
2022-10-03T15:07:43.511Z,65.35
2022-10-03T15:10:47.621Z,65.72
2022-10-03T15:14:02.774Z,66.09
2022-10-03T15:17:19.739Z,66.53
2022-10-03T15:20:34.313Z,66.80
2022-10-03T15:23:49.591Z,66.95
2022-10-03T15:27:02.193Z,67.27
2022-10-03T15:30:07.152Z,67.63
2022-10-03T15:33:23.809Z,68.12
2022-10-03T15:36:34.158Z,67.86
2022-10-03T15:39:44.342Z,68.22
2022-10-03T15:42:51.910Z,69.32
2022-10-03T15:45:58.540Z,68.71
2022-10-03T15:49:07.866Z,69.76
2022-10-03T15:52:24.024Z,69.19
2022-10-03T15:55:43.115Z,70.88
2022-10-03T15:59:06.357Z,71.71
2022-10-03T16:02:31.231Z,73.00
2022-10-03T16:05:34.994Z,73.44
2022-10-03T16:08:52.241Z,73.36
2022-10-03T16:12:18.986Z,74.71
2022-10-03T16:15:43.862Z,74.33
2022-10-03T16:18:55.600Z,76.75
2022-10-03T16:22:10.738Z,76.84
2022-10-03T16:25:18.554Z,76.61
2022-10-03T16:28:34.033Z,77.12
2022-10-03T16:31:50.752Z,77.41
2022-10-03T16:35:03.835Z,77.29
2022-10-03T16:38:20.870Z,77.79
2022-10-03T16:41:35.250Z,78.64
2022-10-03T16:44:49.590Z,78.82
2022-10-03T16:48:14.632Z,78.85
2022-10-03T16:51:23.708Z,78.28
2022-10-03T16:54:28.336Z,77.97
2022-10-03T16:58:13.405Z,78.35
2022-10-03T17:01:36.243Z,77.84
2022-10-03T17:04:42.446Z,77.63
2022-10-03T17:08:29.818Z,78.17
2022-10-03T17:11:29.094Z,78.04
2022-10-03T17:14:39.908Z,78.64
2022-10-03T17:17:47.223Z,79.25
2022-10-03T17:20:57.286Z,79.29
2022-10-03T17:24:18.072Z,79.86
2022-10-03T17:27:32.907Z,80.00
2022-10-03T17:30:48.105Z,80.38
2022-10-03T17:33:57.281Z,79.61
2022-10-03T17:37:17.695Z,78.90
2022-10-03T17:40:44.696Z,78.70
2022-10-03T17:43:58.643Z,78.40
2022-10-03T17:47:43.489Z,77.44
2022-10-03T17:51:18.264Z,77.55
2022-10-03T17:54:27.027Z,77.40
2022-10-03T17:57:42.832Z,77.19
2022-10-03T18:00:45.037Z,77.21
2022-10-03T18:03:53.486Z,77.46
2022-10-03T18:07:02.193Z,77.25
2022-10-03T18:10:17.074Z,77.13
2022-10-03T18:13:48.702Z,76.96
2022-10-03T18:17:17.426Z,77.00
2022-10-03T18:20:58.469Z,77.49
2022-10-03T18:24:18.646Z,77.46
2022-10-03T18:28:04.511Z,77.85
2022-10-03T18:31:18.627Z,78.18
2022-10-03T18:34:36.305Z,78.38
2022-10-03T18:37:44.730Z,77.89
2022-10-03T18:40:53.635Z,78.38
2022-10-03T18:44:00.156Z,78.70
2022-10-03T18:47:20.914Z,78.09
2022-10-03T18:50:29.697Z,78.17
2022-10-03T18:53:44.864Z,77.82
2022-10-03T18:56:58.800Z,78.09
2022-10-03T19:00:09.865Z,78.79
2022-10-03T19:03:19.199Z,78.33
2022-10-03T19:06:28.769Z,78.36
2022-10-03T19:09:39.319Z,78.43
2022-10-03T19:12:49.923Z,79.03
2022-10-03T19:16:33.326Z,78.70
2022-10-03T19:19:55.247Z,78.72
2022-10-03T19:23:00.186Z,78.79
2022-10-03T19:26:08.927Z,78.65
2022-10-03T19:29:22.521Z,78.88
2022-10-03T19:32:35.035Z,78.31
2022-10-03T19:35:46.380Z,78.23
2022-10-03T19:38:49.745Z,77.97
2022-10-03T19:41:56.462Z,78.24
2022-10-03T19:45:00.694Z,78.47
2022-10-03T19:48:10.917Z,78.04
2022-10-03T19:51:25.664Z,78.57
2022-10-03T19:54:43.469Z,78.02
2022-10-03T19:57:58.484Z,77.97
2022-10-03T20:01:02.710Z,78.22
2022-10-03T20:04:05.046Z,78.33
2022-10-03T20:07:48.185Z,78.77
2022-10-03T20:11:08.665Z,78.31
2022-10-03T20:14:29.289Z,78.60
2022-10-03T20:17:32.767Z,77.27
2022-10-03T20:20:36.271Z,77.37
2022-10-03T20:23:42.369Z,77.41
2022-10-03T20:27:06.143Z,76.98
2022-10-03T20:30:40.266Z,76.85
2022-10-03T20:33:44.963Z,76.41
2022-10-03T20:36:58.116Z,76.43
2022-10-03T20:40:36.055Z,76.69
2022-10-03T20:43:53.470Z,77.24
2022-10-03T20:47:02.811Z,78.12
2022-10-03T20:50:37.417Z,77.96
2022-10-03T20:53:46.016Z,77.84
2022-10-03T20:56:56.707Z,77.66
2022-10-03T21:00:20.987Z,77.66
2022-10-03T21:03:37.801Z,78.39
2022-10-03T21:06:54.436Z,78.25
2022-10-03T21:10:32.305Z,78.13
2022-10-03T21:13:42.899Z,76.91
2022-10-03T21:16:49.194Z,77.43
2022-10-03T21:19:55.463Z,77.20
2022-10-03T21:23:03.532Z,76.98
2022-10-03T21:26:07.551Z,76.39
2022-10-03T21:29:27.176Z,76.71
2022-10-03T21:32:46.586Z,76.37
2022-10-03T21:35:51.639Z,76.60
2022-10-03T21:39:04.206Z,76.72
2022-10-03T21:42:06.264Z,76.69
2022-10-03T21:45:32.016Z,77.35
2022-10-03T21:48:41.706Z,77.46
2022-10-03T21:51:50.234Z,77.66
2022-10-03T21:55:15.277Z,77.41
2022-10-03T21:58:45.849Z,76.91
2022-10-03T22:02:07.071Z,76.61
2022-10-03T22:05:24.549Z,76.33
2022-10-03T22:08:34.032Z,76.53
2022-10-03T22:11:51.015Z,76.30
2022-10-03T22:14:56.500Z,76.28
2022-10-03T22:18:19.585Z,76.52
2022-10-03T22:21:35.867Z,76.05
2022-10-03T22:24:42.296Z,76.56
2022-10-03T22:28:06.090Z,76.79
2022-10-03T22:31:26.207Z,76.73
2022-10-03T22:34:47.067Z,76.21
2022-10-03T22:37:49.967Z,77.25
2022-10-03T22:40:55.602Z,78.02
2022-10-03T22:43:59.883Z,77.83
2022-10-03T22:47:13.507Z,77.80
2022-10-03T22:50:19.419Z,77.13
2022-10-03T22:53:27.139Z,77.69
2022-10-03T22:56:55.415Z,78.17
2022-10-03T23:00:04.977Z,78.21
2022-10-03T23:03:15.670Z,77.56
2022-10-03T23:06:38.038Z,78.59
2022-10-03T23:10:07.015Z,78.31
2022-10-03T23:13:14.704Z,79.22
2022-10-03T23:16:35.379Z,78.62
2022-10-03T23:19:52.600Z,78.44
2022-10-03T23:23:00.728Z,78.67
2022-10-03T23:26:11.891Z,79.52
2022-10-03T23:29:20.074Z,79.32
2022-10-03T23:32:53.740Z,79.71
2022-10-03T23:35:56.552Z,79.82
2022-10-03T23:39:02.178Z,79.33
2022-10-03T23:42:31.412Z,79.43
2022-10-03T23:45:35.767Z,79.35
2022-10-03T23:48:46.954Z,79.67
2022-10-03T23:51:49.855Z,79.72
2022-10-03T23:54:55.081Z,78.85
2022-10-03T23:57:58.570Z,79.71
